sensor_id;sensor_type;location;lat;lon;timestamp;temperature;humidity
37678;DHT22;23517;50.390;8.616;2023-02-12T00:01:19;4.20;95.50
37678;DHT22;23517;50.390;8.616;2023-02-12T00:03:47;4.20;95.30
37678;DHT22;23517;50.390;8.616;2023-02-12T00:06:14;4.20;95.50
37678;DHT22;23517;50.390;8.616;2023-02-12T00:08:41;4.20;95.50
37678;DHT22;23517;50.390;8.616;2023-02-12T00:11:27;4.20;95.60
37678;DHT22;23517;50.390;8.616;2023-02-12T00:13:55;4.10;95.60
37678;DHT22;23517;50.390;8.616;2023-02-12T00:16:27;4.20;95.80
37678;DHT22;23517;50.390;8.616;2023-02-12T00:18:55;4.10;95.90
37678;DHT22;23517;50.390;8.616;2023-02-12T00:21:23;4.10;96.10
37678;DHT22;23517;50.390;8.616;2023-02-12T00:23:50;4.10;96.10
37678;DHT22;23517;50.390;8.616;2023-02-12T00:26:22;4.30;96.40
37678;DHT22;23517;50.390;8.616;2023-02-12T00:28:49;4.30;95.80
37678;DHT22;23517;50.390;8.616;2023-02-12T00:31:19;4.30;95.80
37678;DHT22;23517;50.390;8.616;2023-02-12T00:33:47;4.20;95.90
37678;DHT22;23517;50.390;8.616;2023-02-12T00:36:17;4.20;96.00
37678;DHT22;23517;50.390;8.616;2023-02-12T00:38:49;4.30;96.30
37678;DHT22;23517;50.390;8.616;2023-02-12T00:41:16;4.20;96.20
37678;DHT22;23517;50.390;8.616;2023-02-12T00:43:43;4.20;96.40
37678;DHT22;23517;50.390;8.616;2023-02-12T00:46:10;4.20;96.40
37678;DHT22;23517;50.390;8.616;2023-02-12T00:48:37;4.20;96.10
37678;DHT22;23517;50.390;8.616;2023-02-12T00:51:05;4.20;96.10
37678;DHT22;23517;50.390;8.616;2023-02-12T00:53:32;4.20;96.20
37678;DHT22;23517;50.390;8.616;2023-02-12T00:55:59;4.30;96.00
37678;DHT22;23517;50.390;8.616;2023-02-12T00:58:26;4.20;95.90
37678;DHT22;23517;50.390;8.616;2023-02-12T01:00:54;4.20;96.00
37678;DHT22;23517;50.390;8.616;2023-02-12T01:03:26;4.20;95.90
37678;DHT22;23517;50.390;8.616;2023-02-12T01:05:53;4.20;96.00
37678;DHT22;23517;50.390;8.616;2023-02-12T01:08:21;4.10;95.70
37678;DHT22;23517;50.390;8.616;2023-02-12T01:10:59;4.10;95.90
37678;DHT22;23517;50.390;8.616;2023-02-12T01:13:28;4.10;96.20
37678;DHT22;23517;50.390;8.616;2023-02-12T01:18:50;4.10;96.50
37678;DHT22;23517;50.390;8.616;2023-02-12T01:21:27;4.00;96.30
37678;DHT22;23517;50.390;8.616;2023-02-12T01:23:57;3.90;96.30
37678;DHT22;23517;50.390;8.616;2023-02-12T01:26:25;3.90;96.20
37678;DHT22;23517;50.390;8.616;2023-02-12T01:28:54;3.90;95.90
37678;DHT22;23517;50.390;8.616;2023-02-12T01:31:25;3.80;95.80
37678;DHT22;23517;50.390;8.616;2023-02-12T01:33:55;3.70;96.00
37678;DHT22;23517;50.390;8.616;2023-02-12T01:36:24;3.70;96.20
37678;DHT22;23517;50.390;8.616;2023-02-12T01:38:53;3.60;96.10
37678;DHT22;23517;50.390;8.616;2023-02-12T01:41:26;3.60;96.00
37678;DHT22;23517;50.390;8.616;2023-02-12T01:46:42;3.40;96.00
37678;DHT22;23517;50.390;8.616;2023-02-12T01:49:25;3.40;96.30
37678;DHT22;23517;50.390;8.616;2023-02-12T01:52:09;3.40;96.20
37678;DHT22;23517;50.390;8.616;2023-02-12T01:54:40;3.30;96.20
37678;DHT22;23517;50.390;8.616;2023-02-12T01:57:08;3.30;96.40
37678;DHT22;23517;50.390;8.616;2023-02-12T01:59:42;3.20;96.60
37678;DHT22;23517;50.390;8.616;2023-02-12T02:02:09;3.20;97.10
37678;DHT22;23517;50.390;8.616;2023-02-12T02:04:40;3.30;97.40
37678;DHT22;23517;50.390;8.616;2023-02-12T02:07:09;3.40;98.10
37678;DHT22;23517;50.390;8.616;2023-02-12T02:09:38;3.60;99.40
37678;DHT22;23517;50.390;8.616;2023-02-12T02:12:06;3.70;99.60
37678;DHT22;23517;50.390;8.616;2023-02-12T02:14:54;3.80;99.50
37678;DHT22;23517;50.390;8.616;2023-02-12T02:36:14;3.90;98.20
37678;DHT22;23517;50.390;8.616;2023-02-12T02:41:19;3.90;96.80
37678;DHT22;23517;50.390;8.616;2023-02-12T02:44:01;3.80;97.10
37678;DHT22;23517;50.390;8.616;2023-02-12T02:46:44;3.80;96.50
37678;DHT22;23517;50.390;8.616;2023-02-12T02:49:23;3.70;96.40
37678;DHT22;23517;50.390;8.616;2023-02-12T02:52:02;3.70;97.40
37678;DHT22;23517;50.390;8.616;2023-02-12T02:54:35;3.70;95.90
37678;DHT22;23517;50.390;8.616;2023-02-12T02:57:08;3.70;95.90
37678;DHT22;23517;50.390;8.616;2023-02-12T02:59:46;3.70;95.70
37678;DHT22;23517;50.390;8.616;2023-02-12T03:02:24;3.70;95.80
37678;DHT22;23517;50.390;8.616;2023-02-12T03:05:10;3.70;95.90
37678;DHT22;23517;50.390;8.616;2023-02-12T03:07:53;3.70;96.10
37678;DHT22;23517;50.390;8.616;2023-02-12T03:10:28;3.70;95.90
37678;DHT22;23517;50.390;8.616;2023-02-12T03:13:04;3.70;95.50
37678;DHT22;23517;50.390;8.616;2023-02-12T03:18:33;3.70;96.20
37678;DHT22;23517;50.390;8.616;2023-02-12T03:21:17;3.70;96.20
37678;DHT22;23517;50.390;8.616;2023-02-12T03:24:06;4.00;96.60
37678;DHT22;23517;50.390;8.616;2023-02-12T03:26:51;3.80;96.50
37678;DHT22;23517;50.390;8.616;2023-02-12T03:29:25;3.80;96.80
37678;DHT22;23517;50.390;8.616;2023-02-12T03:32:14;3.80;96.80
37678;DHT22;23517;50.390;8.616;2023-02-12T03:34:49;3.80;97.00
37678;DHT22;23517;50.390;8.616;2023-02-12T03:37:44;3.80;97.30
37678;DHT22;23517;50.390;8.616;2023-02-12T03:40:31;3.90;97.20
37678;DHT22;23517;50.390;8.616;2023-02-12T03:43:16;3.90;97.30
37678;DHT22;23517;50.390;8.616;2023-02-12T03:46:07;3.90;97.30
37678;DHT22;23517;50.390;8.616;2023-02-12T03:49:08;3.90;97.50
37678;DHT22;23517;50.390;8.616;2023-02-12T03:51:40;3.90;97.80
37678;DHT22;23517;50.390;8.616;2023-02-12T03:54:09;3.90;98.10
37678;DHT22;23517;50.390;8.616;2023-02-12T03:57:03;3.90;97.50
37678;DHT22;23517;50.390;8.616;2023-02-12T03:59:34;3.90;97.60
37678;DHT22;23517;50.390;8.616;2023-02-12T04:02:02;3.90;97.50
37678;DHT22;23517;50.390;8.616;2023-02-12T04:04:29;3.90;97.60
37678;DHT22;23517;50.390;8.616;2023-02-12T04:06:57;3.90;97.70
37678;DHT22;23517;50.390;8.616;2023-02-12T04:09:25;3.90;97.90
37678;DHT22;23517;50.390;8.616;2023-02-12T04:17:58;4.00;98.30
37678;DHT22;23517;50.390;8.616;2023-02-12T04:20:47;4.10;97.80
37678;DHT22;23517;50.390;8.616;2023-02-12T04:35:01;4.10;98.20
37678;DHT22;23517;50.390;8.616;2023-02-12T04:37:46;4.10;98.30
37678;DHT22;23517;50.390;8.616;2023-02-12T04:40:17;4.20;98.40
37678;DHT22;23517;50.390;8.616;2023-02-12T04:42:47;4.20;98.60
37678;DHT22;23517;50.390;8.616;2023-02-12T04:45:30;4.20;98.70
37678;DHT22;23517;50.390;8.616;2023-02-12T04:47:59;4.20;98.40
37678;DHT22;23517;50.390;8.616;2023-02-12T04:50:30;4.20;98.40
37678;DHT22;23517;50.390;8.616;2023-02-12T04:53:09;4.20;98.40
37678;DHT22;23517;50.390;8.616;2023-02-12T04:55:36;4.20;98.50
37678;DHT22;23517;50.390;8.616;2023-02-12T04:58:03;4.20;98.40
37678;DHT22;23517;50.390;8.616;2023-02-12T05:00:31;4.20;98.60
37678;DHT22;23517;50.390;8.616;2023-02-12T05:02:57;4.20;98.60
37678;DHT22;23517;50.390;8.616;2023-02-12T05:05:24;4.20;98.80
37678;DHT22;23517;50.390;8.616;2023-02-12T05:07:51;4.20;98.80
37678;DHT22;23517;50.390;8.616;2023-02-12T05:10:18;4.20;98.80
37678;DHT22;23517;50.390;8.616;2023-02-12T05:12:45;4.20;98.70
37678;DHT22;23517;50.390;8.616;2023-02-12T05:15:13;4.20;98.60
37678;DHT22;23517;50.390;8.616;2023-02-12T05:17:40;4.20;98.70
37678;DHT22;23517;50.390;8.616;2023-02-12T05:20:07;4.20;98.80
37678;DHT22;23517;50.390;8.616;2023-02-12T05:22:34;4.20;98.80
37678;DHT22;23517;50.390;8.616;2023-02-12T05:25:01;4.20;98.80
37678;DHT22;23517;50.390;8.616;2023-02-12T05:27:28;4.20;98.80
37678;DHT22;23517;50.390;8.616;2023-02-12T05:29:54;4.20;98.90
37678;DHT22;23517;50.390;8.616;2023-02-12T05:32:23;4.20;98.80
37678;DHT22;23517;50.390;8.616;2023-02-12T05:34:50;4.20;98.80
37678;DHT22;23517;50.390;8.616;2023-02-12T05:37:16;4.20;98.90
37678;DHT22;23517;50.390;8.616;2023-02-12T05:39:43;4.20;98.80
37678;DHT22;23517;50.390;8.616;2023-02-12T05:42:10;4.20;98.60
37678;DHT22;23517;50.390;8.616;2023-02-12T05:44:36;4.20;98.70
37678;DHT22;23517;50.390;8.616;2023-02-12T05:47:03;4.20;98.70
37678;DHT22;23517;50.390;8.616;2023-02-12T05:49:30;4.20;98.60
37678;DHT22;23517;50.390;8.616;2023-02-12T05:51:56;4.20;98.60
37678;DHT22;23517;50.390;8.616;2023-02-12T05:54:23;4.20;98.70
37678;DHT22;23517;50.390;8.616;2023-02-12T05:56:49;4.20;98.60
37678;DHT22;23517;50.390;8.616;2023-02-12T05:59:21;4.20;98.70
37678;DHT22;23517;50.390;8.616;2023-02-12T06:01:50;4.20;98.70
37678;DHT22;23517;50.390;8.616;2023-02-12T06:04:24;4.20;98.60
37678;DHT22;23517;50.390;8.616;2023-02-12T06:06:53;4.30;98.60
37678;DHT22;23517;50.390;8.616;2023-02-12T06:09:21;4.30;98.60
37678;DHT22;23517;50.390;8.616;2023-02-12T06:11:48;4.30;98.60
37678;DHT22;23517;50.390;8.616;2023-02-12T06:14:17;4.30;98.60
37678;DHT22;23517;50.390;8.616;2023-02-12T06:16:46;4.30;98.60
37678;DHT22;23517;50.390;8.616;2023-02-12T06:19:14;4.20;98.50
37678;DHT22;23517;50.390;8.616;2023-02-12T06:21:41;4.30;98.50
37678;DHT22;23517;50.390;8.616;2023-02-12T06:24:10;4.30;98.40
37678;DHT22;23517;50.390;8.616;2023-02-12T06:26:38;4.30;98.40
37678;DHT22;23517;50.390;8.616;2023-02-12T06:29:04;4.30;98.50
37678;DHT22;23517;50.390;8.616;2023-02-12T06:31:34;4.30;98.50
37678;DHT22;23517;50.390;8.616;2023-02-12T06:34:07;4.30;98.80
37678;DHT22;23517;50.390;8.616;2023-02-12T06:36:39;4.30;98.90
37678;DHT22;23517;50.390;8.616;2023-02-12T06:39:07;4.20;99.00
37678;DHT22;23517;50.390;8.616;2023-02-12T06:41:34;4.30;99.20
37678;DHT22;23517;50.390;8.616;2023-02-12T06:44:01;4.30;99.30
37678;DHT22;23517;50.390;8.616;2023-02-12T06:46:28;4.30;99.40
37678;DHT22;23517;50.390;8.616;2023-02-12T06:48:56;4.20;99.40
37678;DHT22;23517;50.390;8.616;2023-02-12T06:51:25;4.30;99.60
37678;DHT22;23517;50.390;8.616;2023-02-12T06:53:54;4.30;99.60
37678;DHT22;23517;50.390;8.616;2023-02-12T06:56:23;4.20;99.70
37678;DHT22;23517;50.390;8.616;2023-02-12T06:58:56;4.20;99.90
37678;DHT22;23517;50.390;8.616;2023-02-12T07:01:25;4.20;99.90
37678;DHT22;23517;50.390;8.616;2023-02-12T07:03:54;4.20;99.90
37678;DHT22;23517;50.390;8.616;2023-02-12T07:06:27;4.30;99.90
37678;DHT22;23517;50.390;8.616;2023-02-12T07:08:55;4.20;99.90
37678;DHT22;23517;50.390;8.616;2023-02-12T07:11:27;4.30;99.90
37678;DHT22;23517;50.390;8.616;2023-02-12T07:13:55;4.30;99.90
37678;DHT22;23517;50.390;8.616;2023-02-12T07:16:22;4.30;99.90
37678;DHT22;23517;50.390;8.616;2023-02-12T07:18:49;4.30;99.90
37678;DHT22;23517;50.390;8.616;2023-02-12T07:21:16;4.30;99.90
37678;DHT22;23517;50.390;8.616;2023-02-12T07:23:50;4.30;99.90
37678;DHT22;23517;50.390;8.616;2023-02-12T07:26:19;4.30;99.90
37678;DHT22;23517;50.390;8.616;2023-02-12T07:28:47;4.30;99.90
37678;DHT22;23517;50.390;8.616;2023-02-12T07:31:22;4.40;99.90
37678;DHT22;23517;50.390;8.616;2023-02-12T07:33:53;4.40;99.90
37678;DHT22;23517;50.390;8.616;2023-02-12T07:36:22;4.50;99.90
37678;DHT22;23517;50.390;8.616;2023-02-12T07:38:49;4.50;99.90
37678;DHT22;23517;50.390;8.616;2023-02-12T07:41:20;4.50;99.90
37678;DHT22;23517;50.390;8.616;2023-02-12T07:43:53;4.50;99.90
37678;DHT22;23517;50.390;8.616;2023-02-12T07:46:29;4.60;99.90
37678;DHT22;23517;50.390;8.616;2023-02-12T07:49:00;4.70;99.90
37678;DHT22;23517;50.390;8.616;2023-02-12T07:51:29;4.70;99.90
37678;DHT22;23517;50.390;8.616;2023-02-12T07:53:58;4.80;99.90
37678;DHT22;23517;50.390;8.616;2023-02-12T07:56:29;4.90;99.90
37678;DHT22;23517;50.390;8.616;2023-02-12T07:59:00;4.90;99.90
37678;DHT22;23517;50.390;8.616;2023-02-12T08:01:31;4.90;99.90
37678;DHT22;23517;50.390;8.616;2023-02-12T08:04:05;5.00;99.90
37678;DHT22;23517;50.390;8.616;2023-02-12T08:06:36;5.00;99.90
37678;DHT22;23517;50.390;8.616;2023-02-12T08:09:08;5.20;99.90
37678;DHT22;23517;50.390;8.616;2023-02-12T08:11:38;5.40;99.10
37678;DHT22;23517;50.390;8.616;2023-02-12T08:14:05;5.40;97.40
37678;DHT22;23517;50.390;8.616;2023-02-12T08:16:35;5.50;96.50
37678;DHT22;23517;50.390;8.616;2023-02-12T08:19:04;5.50;96.80
37678;DHT22;23517;50.390;8.616;2023-02-12T08:21:44;5.50;96.60
37678;DHT22;23517;50.390;8.616;2023-02-12T08:24:12;5.50;96.70
37678;DHT22;23517;50.390;8.616;2023-02-12T08:26:39;5.50;97.40
37678;DHT22;23517;50.390;8.616;2023-02-12T08:29:08;5.60;97.00
37678;DHT22;23517;50.390;8.616;2023-02-12T08:31:44;5.70;96.40
37678;DHT22;23517;50.390;8.616;2023-02-12T08:34:25;5.80;96.90
37678;DHT22;23517;50.390;8.616;2023-02-12T08:36:54;5.90;97.40
37678;DHT22;23517;50.390;8.616;2023-02-12T08:39:23;6.00;96.40
37678;DHT22;23517;50.390;8.616;2023-02-12T08:41:53;6.00;94.80
37678;DHT22;23517;50.390;8.616;2023-02-12T08:44:21;6.00;96.40
37678;DHT22;23517;50.390;8.616;2023-02-12T08:46:49;6.10;96.70
37678;DHT22;23517;50.390;8.616;2023-02-12T08:49:23;6.10;96.90
37678;DHT22;23517;50.390;8.616;2023-02-12T08:51:55;6.30;97.20
37678;DHT22;23517;50.390;8.616;2023-02-12T08:54:26;6.40;96.70
37678;DHT22;23517;50.390;8.616;2023-02-12T08:56:55;6.50;95.50
37678;DHT22;23517;50.390;8.616;2023-02-12T08:59:26;6.60;95.30
37678;DHT22;23517;50.390;8.616;2023-02-12T09:01:53;6.80;93.80
37678;DHT22;23517;50.390;8.616;2023-02-12T09:04:22;6.90;92.00
37678;DHT22;23517;50.390;8.616;2023-02-12T09:06:51;6.90;89.40
37678;DHT22;23517;50.390;8.616;2023-02-12T09:09:18;6.90;89.40
37678;DHT22;23517;50.390;8.616;2023-02-12T09:11:45;6.90;90.30
37678;DHT22;23517;50.390;8.616;2023-02-12T09:14:16;7.10;88.60
37678;DHT22;23517;50.390;8.616;2023-02-12T09:16:44;7.10;89.30
37678;DHT22;23517;50.390;8.616;2023-02-12T09:19:13;7.20;89.60
37678;DHT22;23517;50.390;8.616;2023-02-12T09:21:42;7.20;88.50
37678;DHT22;23517;50.390;8.616;2023-02-12T09:24:09;7.20;90.10
37678;DHT22;23517;50.390;8.616;2023-02-12T09:26:36;7.30;89.20
37678;DHT22;23517;50.390;8.616;2023-02-12T09:29:03;7.30;87.70
37678;DHT22;23517;50.390;8.616;2023-02-12T09:31:31;7.30;88.50
37678;DHT22;23517;50.390;8.616;2023-02-12T09:34:04;7.30;88.20
37678;DHT22;23517;50.390;8.616;2023-02-12T09:36:32;7.40;88.90
37678;DHT22;23517;50.390;8.616;2023-02-12T09:38:59;7.50;89.10
37678;DHT22;23517;50.390;8.616;2023-02-12T09:45:09;7.40;85.60
37678;DHT22;23517;50.390;8.616;2023-02-12T09:47:51;7.40;86.60
37678;DHT22;23517;50.390;8.616;2023-02-12T09:53:24;7.50;87.10
37678;DHT22;23517;50.390;8.616;2023-02-12T09:55:53;7.50;87.70
37678;DHT22;23517;50.390;8.616;2023-02-12T09:58:45;7.50;86.20
37678;DHT22;23517;50.390;8.616;2023-02-12T10:01:17;7.40;86.50
37678;DHT22;23517;50.390;8.616;2023-02-12T10:03:47;7.50;87.60
37678;DHT22;23517;50.390;8.616;2023-02-12T10:06:21;7.40;87.50
37678;DHT22;23517;50.390;8.616;2023-02-12T10:17:31;7.90;84.80
37678;DHT22;23517;50.390;8.616;2023-02-12T10:23:26;8.00;83.90
37678;DHT22;23517;50.390;8.616;2023-02-12T10:26:27;8.00;82.90
37678;DHT22;23517;50.390;8.616;2023-02-12T10:29:09;7.90;85.30
37678;DHT22;23517;50.390;8.616;2023-02-12T10:31:42;8.00;82.70
37678;DHT22;23517;50.390;8.616;2023-02-12T10:34:17;8.10;83.80
37678;DHT22;23517;50.390;8.616;2023-02-12T10:36:48;8.00;82.60
37678;DHT22;23517;50.390;8.616;2023-02-12T10:39:28;8.10;84.30
37678;DHT22;23517;50.390;8.616;2023-02-12T10:42:02;7.90;83.50
37678;DHT22;23517;50.390;8.616;2023-02-12T10:44:35;8.00;83.40
37678;DHT22;23517;50.390;8.616;2023-02-12T10:47:01;7.90;84.50
37678;DHT22;23517;50.390;8.616;2023-02-12T10:49:30;8.00;83.40
37678;DHT22;23517;50.390;8.616;2023-02-12T10:52:11;7.90;85.80
37678;DHT22;23517;50.390;8.616;2023-02-12T10:54:54;7.90;85.80
37678;DHT22;23517;50.390;8.616;2023-02-12T10:57:26;7.90;86.50
37678;DHT22;23517;50.390;8.616;2023-02-12T11:00:24;8.00;85.90
37678;DHT22;23517;50.390;8.616;2023-02-12T11:05:39;8.30;82.90
37678;DHT22;23517;50.390;8.616;2023-02-12T11:14:19;8.40;81.30
37678;DHT22;23517;50.390;8.616;2023-02-12T11:16:55;8.60;79.20
37678;DHT22;23517;50.390;8.616;2023-02-12T11:19:28;8.80;76.20
37678;DHT22;23517;50.390;8.616;2023-02-12T11:22:11;8.90;77.00
37678;DHT22;23517;50.390;8.616;2023-02-12T11:24:45;8.80;76.50
37678;DHT22;23517;50.390;8.616;2023-02-12T11:27:24;8.90;77.50
37678;DHT22;23517;50.390;8.616;2023-02-12T11:30:17;9.00;76.20
37678;DHT22;23517;50.390;8.616;2023-02-12T11:32:45;9.20;73.30
37678;DHT22;23517;50.390;8.616;2023-02-12T11:35:21;9.30;71.30
37678;DHT22;23517;50.390;8.616;2023-02-12T11:37:56;9.40;68.00
37678;DHT22;23517;50.390;8.616;2023-02-12T11:40:33;9.50;68.20
37678;DHT22;23517;50.390;8.616;2023-02-12T11:43:02;9.40;69.40
37678;DHT22;23517;50.390;8.616;2023-02-12T11:45:46;9.30;68.40
37678;DHT22;23517;50.390;8.616;2023-02-12T11:48:21;9.30;68.60
37678;DHT22;23517;50.390;8.616;2023-02-12T11:50:53;9.30;69.30
37678;DHT22;23517;50.390;8.616;2023-02-12T11:53:24;9.10;69.70
37678;DHT22;23517;50.390;8.616;2023-02-12T11:56:06;9.00;69.30
37678;DHT22;23517;50.390;8.616;2023-02-12T11:58:34;8.70;72.90
37678;DHT22;23517;50.390;8.616;2023-02-12T12:01:09;8.70;73.80
37678;DHT22;23517;50.390;8.616;2023-02-12T12:06:36;8.80;74.20
37678;DHT22;23517;50.390;8.616;2023-02-12T12:09:17;8.90;72.00
37678;DHT22;23517;50.390;8.616;2023-02-12T12:12:02;9.00;71.30
37678;DHT22;23517;50.390;8.616;2023-02-12T12:14:38;9.10;70.30
37678;DHT22;23517;50.390;8.616;2023-02-12T12:20:27;9.00;70.90
37678;DHT22;23517;50.390;8.616;2023-02-12T12:23:04;8.90;71.10
37678;DHT22;23517;50.390;8.616;2023-02-12T12:25:58;9.00;70.10
37678;DHT22;23517;50.390;8.616;2023-02-12T12:28:52;9.00;71.50
37678;DHT22;23517;50.390;8.616;2023-02-12T12:31:35;9.00;72.30
37678;DHT22;23517;50.390;8.616;2023-02-12T12:34:18;9.10;73.40
37678;DHT22;23517;50.390;8.616;2023-02-12T12:37:08;9.10;73.30
37678;DHT22;23517;50.390;8.616;2023-02-12T12:43:23;9.10;74.90
37678;DHT22;23517;50.390;8.616;2023-02-12T12:48:52;9.20;72.80
37678;DHT22;23517;50.390;8.616;2023-02-12T12:57:55;9.20;73.00
37678;DHT22;23517;50.390;8.616;2023-02-12T13:01:19;9.10;74.30
37678;DHT22;23517;50.390;8.616;2023-02-12T13:15:38;8.80;78.10
37678;DHT22;23517;50.390;8.616;2023-02-12T13:18:27;8.90;77.80
37678;DHT22;23517;50.390;8.616;2023-02-12T13:21:17;8.80;78.50
37678;DHT22;23517;50.390;8.616;2023-02-12T13:24:20;8.90;76.90
37678;DHT22;23517;50.390;8.616;2023-02-12T13:27:00;8.80;77.40
37678;DHT22;23517;50.390;8.616;2023-02-12T13:29:49;8.80;77.90
37678;DHT22;23517;50.390;8.616;2023-02-12T13:32:36;8.90;76.50
37678;DHT22;23517;50.390;8.616;2023-02-12T13:35:15;8.90;77.90
37678;DHT22;23517;50.390;8.616;2023-02-12T13:37:48;8.90;76.20
37678;DHT22;23517;50.390;8.616;2023-02-12T13:40:20;8.80;76.60
37678;DHT22;23517;50.390;8.616;2023-02-12T13:43:05;8.80;76.30
37678;DHT22;23517;50.390;8.616;2023-02-12T13:48:33;9.00;71.20
37678;DHT22;23517;50.390;8.616;2023-02-12T13:51:14;8.90;71.80
37678;DHT22;23517;50.390;8.616;2023-02-12T13:53:58;8.80;70.50
37678;DHT22;23517;50.390;8.616;2023-02-12T13:56:54;8.80;70.00
37678;DHT22;23517;50.390;8.616;2023-02-12T14:04:41;8.70;70.90
37678;DHT22;23517;50.390;8.616;2023-02-12T14:07:12;8.80;71.30
37678;DHT22;23517;50.390;8.616;2023-02-12T14:14:53;8.70;70.00
37678;DHT22;23517;50.390;8.616;2023-02-12T14:19:55;8.60;70.30
37678;DHT22;23517;50.390;8.616;2023-02-12T14:27:51;8.50;70.90
37678;DHT22;23517;50.390;8.616;2023-02-12T14:30:47;8.40;70.90
37678;DHT22;23517;50.390;8.616;2023-02-12T14:33:37;8.40;70.00
37678;DHT22;23517;50.390;8.616;2023-02-12T14:36:16;8.40;70.60
37678;DHT22;23517;50.390;8.616;2023-02-12T14:38:58;8.50;68.70
37678;DHT22;23517;50.390;8.616;2023-02-12T14:41:32;8.50;68.20
37678;DHT22;23517;50.390;8.616;2023-02-12T14:49:47;8.40;70.90
37678;DHT22;23517;50.390;8.616;2023-02-12T14:52:19;8.40;70.50
37678;DHT22;23517;50.390;8.616;2023-02-12T14:54:54;8.30;70.80
37678;DHT22;23517;50.390;8.616;2023-02-12T14:57:29;8.20;71.30
37678;DHT22;23517;50.390;8.616;2023-02-12T15:02:34;8.30;70.90
37678;DHT22;23517;50.390;8.616;2023-02-12T15:05:11;8.30;70.40
37678;DHT22;23517;50.390;8.616;2023-02-12T15:07:45;8.20;70.70
37678;DHT22;23517;50.390;8.616;2023-02-12T15:10:17;8.20;71.40
37678;DHT22;23517;50.390;8.616;2023-02-12T15:12:56;8.20;72.00
37678;DHT22;23517;50.390;8.616;2023-02-12T15:15:38;8.20;71.80
37678;DHT22;23517;50.390;8.616;2023-02-12T15:18:34;8.10;72.70
37678;DHT22;23517;50.390;8.616;2023-02-12T15:26:32;8.20;72.90
37678;DHT22;23517;50.390;8.616;2023-02-12T15:29:01;8.10;73.40
37678;DHT22;23517;50.390;8.616;2023-02-12T15:31:30;8.10;72.70
37678;DHT22;23517;50.390;8.616;2023-02-12T15:34:00;8.10;74.00
37678;DHT22;23517;50.390;8.616;2023-02-12T15:36:30;8.10;75.30
37678;DHT22;23517;50.390;8.616;2023-02-12T15:39:01;8.00;75.50
37678;DHT22;23517;50.390;8.616;2023-02-12T15:47:09;8.00;77.50
37678;DHT22;23517;50.390;8.616;2023-02-12T15:49:39;7.90;76.30
37678;DHT22;23517;50.390;8.616;2023-02-12T15:52:17;7.80;76.90
37678;DHT22;23517;50.390;8.616;2023-02-12T15:54:46;7.80;77.70
37678;DHT22;23517;50.390;8.616;2023-02-12T15:57:20;7.80;77.90
37678;DHT22;23517;50.390;8.616;2023-02-12T15:59:53;7.70;79.60
37678;DHT22;23517;50.390;8.616;2023-02-12T16:02:26;7.70;79.20
37678;DHT22;23517;50.390;8.616;2023-02-12T16:04:55;7.60;79.90
37678;DHT22;23517;50.390;8.616;2023-02-12T16:07:24;7.60;81.60
37678;DHT22;23517;50.390;8.616;2023-02-12T16:09:52;7.60;81.40
37678;DHT22;23517;50.390;8.616;2023-02-12T16:12:21;7.60;81.60
37678;DHT22;23517;50.390;8.616;2023-02-12T16:14:54;7.60;81.80
37678;DHT22;23517;50.390;8.616;2023-02-12T16:17:30;7.60;83.30
37678;DHT22;23517;50.390;8.616;2023-02-12T16:20:19;7.60;82.80
37678;DHT22;23517;50.390;8.616;2023-02-12T16:22:51;7.70;83.20
37678;DHT22;23517;50.390;8.616;2023-02-12T16:25:26;7.60;83.80
37678;DHT22;23517;50.390;8.616;2023-02-12T16:41:32;7.40;83.30
37678;DHT22;23517;50.390;8.616;2023-02-12T16:46:27;7.30;85.20
37678;DHT22;23517;50.390;8.616;2023-02-12T16:48:57;7.30;86.20
37678;DHT22;23517;50.390;8.616;2023-02-12T16:51:35;7.30;85.80
37678;DHT22;23517;50.390;8.616;2023-02-12T16:54:03;7.20;86.00
37678;DHT22;23517;50.390;8.616;2023-02-12T16:56:56;7.20;86.30
37678;DHT22;23517;50.390;8.616;2023-02-12T16:59:23;7.20;87.30
37678;DHT22;23517;50.390;8.616;2023-02-12T17:01:59;7.10;87.80
37678;DHT22;23517;50.390;8.616;2023-02-12T17:04:29;7.20;88.30
37678;DHT22;23517;50.390;8.616;2023-02-12T17:06:56;7.20;88.00
37678;DHT22;23517;50.390;8.616;2023-02-12T17:09:23;7.10;88.40
37678;DHT22;23517;50.390;8.616;2023-02-12T17:11:50;7.10;88.80
37678;DHT22;23517;50.390;8.616;2023-02-12T17:14:18;7.10;89.00
37678;DHT22;23517;50.390;8.616;2023-02-12T17:16:46;7.10;88.10
37678;DHT22;23517;50.390;8.616;2023-02-12T17:19:14;7.10;88.80
37678;DHT22;23517;50.390;8.616;2023-02-12T17:21:43;7.10;88.80
37678;DHT22;23517;50.390;8.616;2023-02-12T17:24:20;7.10;88.80
37678;DHT22;23517;50.390;8.616;2023-02-12T17:26:50;7.10;89.00
37678;DHT22;23517;50.390;8.616;2023-02-12T17:29:17;7.00;89.30
37678;DHT22;23517;50.390;8.616;2023-02-12T17:31:46;7.00;89.80
37678;DHT22;23517;50.390;8.616;2023-02-12T17:34:14;7.00;89.90
37678;DHT22;23517;50.390;8.616;2023-02-12T17:36:41;7.00;90.00
37678;DHT22;23517;50.390;8.616;2023-02-12T17:39:11;7.00;89.90
37678;DHT22;23517;50.390;8.616;2023-02-12T17:41:38;6.90;90.20
37678;DHT22;23517;50.390;8.616;2023-02-12T17:44:06;6.90;90.30
37678;DHT22;23517;50.390;8.616;2023-02-12T17:46:33;6.90;90.50
37678;DHT22;23517;50.390;8.616;2023-02-12T17:49:00;6.90;90.60
37678;DHT22;23517;50.390;8.616;2023-02-12T17:51:27;7.00;90.70
37678;DHT22;23517;50.390;8.616;2023-02-12T17:53:54;6.90;90.80
37678;DHT22;23517;50.390;8.616;2023-02-12T17:56:29;6.90;90.80
37678;DHT22;23517;50.390;8.616;2023-02-12T17:58:56;6.90;91.20
37678;DHT22;23517;50.390;8.616;2023-02-12T18:01:22;6.90;91.30
37678;DHT22;23517;50.390;8.616;2023-02-12T18:03:50;6.90;91.30
37678;DHT22;23517;50.390;8.616;2023-02-12T18:06:29;6.90;91.20
37678;DHT22;23517;50.390;8.616;2023-02-12T18:08:57;6.90;92.30
37678;DHT22;23517;50.390;8.616;2023-02-12T18:11:24;6.90;91.80
37678;DHT22;23517;50.390;8.616;2023-02-12T18:13:55;6.90;91.50
37678;DHT22;23517;50.390;8.616;2023-02-12T18:16:25;6.90;91.70
37678;DHT22;23517;50.390;8.616;2023-02-12T18:18:53;6.90;92.00
37678;DHT22;23517;50.390;8.616;2023-02-12T18:21:20;6.90;92.00
37678;DHT22;23517;50.390;8.616;2023-02-12T18:23:47;6.80;92.00
37678;DHT22;23517;50.390;8.616;2023-02-12T18:26:17;6.90;92.40
37678;DHT22;23517;50.390;8.616;2023-02-12T18:28:44;6.90;92.60
37678;DHT22;23517;50.390;8.616;2023-02-12T18:31:12;6.90;92.60
37678;DHT22;23517;50.390;8.616;2023-02-12T18:33:39;7.00;91.90
37678;DHT22;23517;50.390;8.616;2023-02-12T18:36:08;7.00;91.70
37678;DHT22;23517;50.390;8.616;2023-02-12T18:38:37;6.90;91.80
37678;DHT22;23517;50.390;8.616;2023-02-12T18:41:15;6.90;92.00
37678;DHT22;23517;50.390;8.616;2023-02-12T18:43:52;6.90;91.70
37678;DHT22;23517;50.390;8.616;2023-02-12T18:46:22;6.90;92.60
37678;DHT22;23517;50.390;8.616;2023-02-12T18:48:51;6.80;92.10
37678;DHT22;23517;50.390;8.616;2023-02-12T18:51:23;6.90;92.10
37678;DHT22;23517;50.390;8.616;2023-02-12T18:53:57;6.90;92.30
37678;DHT22;23517;50.390;8.616;2023-02-12T18:56:34;6.80;92.20
37678;DHT22;23517;50.390;8.616;2023-02-12T18:59:06;6.80;92.50
37678;DHT22;23517;50.390;8.616;2023-02-12T19:01:35;6.80;92.10
37678;DHT22;23517;50.390;8.616;2023-02-12T19:04:04;6.70;92.20